Etusivu
METAR-TAF:

METAR-TAF

Lentoasemat :

Notodden, Norja

Leveyspiiri: 59-34N, Pituuspiiri: 009-13E, korkeus merenpinnasta: 19 m

Tämänhetkinen sää

Tämä raportti tehtiin 4 tuntia ja 12 minuuttia sitten, kello 16.50 UTC
Tuuli 7 kn idästä
Lämpötila 20°C
Kosteus 60%
Ilmanpaine 1000 hPa
Näkyvyys 10 km tai enemmän
Hajonneita pilviä 5000 ft:n korkeudessa

METAR: ENNO 181650Z 09007KT 9999 BKN050 20/12 Q1000 WIND MEASURED AT THR30

Aika: 23:02 (21:02 UTC)

Sääennuste

Tämä raportti tehtiin 10 tuntia ja 2 minuuttia sitten, kello 11.00 UTC
Ennuste voimassa 18. päivästä klo 12 UTC - 18. päivään klo 17 UTC
Tuuli 8 kn etelästä/kaakosta
Näkyvyys 10 km tai enemmän
Hajanaisia pilviä 3000 ft:n korkeudessa

TAF: ENNO 181100Z 1812/1817 15008KT 9999 SCT030

Säähavainnot ja -ennusteet yli 4000 lentoasemalta (METAR- ja TAF-raportit).

Käytössä olevat sääasemat on merkitty karttaan keltaisilla ja punaisilla pisteillä.

Aseta hiiri pisteen päälle nähdäksesi sääaseman nimen.

Klikkaa sitten nähdäksesi säähavainnot ja -ennusteet.

Kartan vaihtaminen: klikkaa mustalla rastilla varustettuja vihreitä pisteitä, niin voit zoomata sisään; viivalla varustettua vihreää pistettä, niin voit zoomata ulos tai vihreitä nuolia, niin pääset viereisille kartoille.


METAR-TAF: